Time;durP1;ratioP1;P1;durP2;ratioP2;P2;SDS_P1;SDS_P2;PMS_P1;PMS_P2;Temp;Humidity;BMP_temperature;BMP_pressure;BME280_temperature;BME280_humidity;BME280_pressure;Samples;Min_cycle;Max_cycle;Signal;HPM_P1;HPM_P2
2022/12/22 03:29:21;;;;;;;13.25;6.20;;;;;;;;;;12840202;19;20347;-67
2022/12/22 03:33:38;;;;;;;11.30;6.38;;;;;;;;;;12842048;19;20689;-65
2022/12/22 03:37:55;;;;;;;10.80;6.07;;;;;;;;;;12841817;19;20426;-66
2022/12/22 03:47:02;;;;;;;10.25;6.00;;;;;;;;;;12837973;19;20457;-66
2022/12/22 03:51:19;;;;;;;10.18;4.85;;;;;;;;;;12840246;19;20007;-66
2022/12/22 03:55:36;;;;;;;11.77;6.32;;;;;;;;;;12841588;19;20030;-66
2022/12/22 03:59:53;;;;;;;11.32;5.78;;;;;;;;;;12842166;19;20321;-66
2022/12/22 04:04:12;;;;;;;10.23;5.90;;;;;;;;;;12839785;19;20011;-67
2022/12/22 04:08:29;;;;;;;10.93;5.63;;;;;;;;;;12839843;19;20453;-68
2022/12/22 04:12:55;;;;;;;10.32;5.30;;;;;;;;;;12840129;19;20406;-66
2022/12/22 04:17:12;;;;;;;10.10;6.13;;;;;;;;;;12838565;19;20452;-67
2022/12/22 04:21:29;;;;;;;17.85;7.65;;;;;;;;;;12838845;19;20342;-66
2022/12/22 04:25:46;;;;;;;16.52;7.72;;;;;;;;;;12840457;19;20337;-67
2022/12/22 04:30:07;;;;;;;19.15;8.15;;;;;;;;;;12837782;19;20048;-67
2022/12/22 04:34:24;;;;;;;18.75;8.85;;;;;;;;;;12838992;19;20033;-66
2022/12/22 04:38:41;;;;;;;14.52;7.78;;;;;;;;;;12838133;19;20002;-65
2022/12/22 04:42:58;;;;;;;11.70;7.05;;;;;;;;;;12838929;19;20361;-65
2022/12/22 04:47:16;;;;;;;14.23;7.18;;;;;;;;;;12838022;19;20421;-66
2022/12/22 04:51:33;;;;;;;17.67;8.93;;;;;;;;;;12837579;19;20718;-65
2022/12/22 04:55:56;;;;;;;15.35;6.68;;;;;;;;;;12839442;19;20588;-65
2022/12/22 05:00:14;;;;;;;12.15;6.85;;;;;;;;;;12837070;19;20472;-66
2022/12/22 05:04:31;;;;;;;13.43;6.93;;;;;;;;;;12837289;19;20425;-67
2022/12/22 05:08:48;;;;;;;13.15;6.90;;;;;;;;;;12838291;19;20015;-66
2022/12/22 05:13:05;;;;;;;12.35;7.28;;;;;;;;;;12836243;19;20007;-66
2022/12/22 05:17:22;;;;;;;14.40;8.27;;;;;;;;;;12837457;19;20533;-66
2022/12/22 05:21:39;;;;;;;14.98;8.25;;;;;;;;;;12836248;19;20014;-65
2022/12/22 05:25:56;;;;;;;15.02;8.05;;;;;;;;;;12836460;19;20017;-66
2022/12/22 05:30:15;;;;;;;15.10;7.85;;;;;;;;;;12833045;19;20449;-65
2022/12/22 05:34:32;;;;;;;13.82;8.20;;;;;;;;;;12836044;19;20500;-66
2022/12/22 05:38:49;;;;;;;15.30;7.95;;;;;;;;;;12837321;19;20039;-66
2022/12/22 05:43:06;;;;;;;11.05;7.18;;;;;;;;;;12834314;19;20007;-66
2022/12/22 05:47:23;;;;;;;13.52;7.22;;;;;;;;;;12836180;19;20006;-65
2022/12/22 05:51:40;;;;;;;12.50;7.10;;;;;;;;;;12839232;19;20294;-66
2022/12/22 05:55:57;;;;;;;11.07;6.28;;;;;;;;;;12846799;19;20375;-67
2022/12/22 06:00:16;;;;;;;12.40;7.75;;;;;;;;;;12845742;19;20321;-66
2022/12/22 06:04:33;;;;;;;11.45;6.63;;;;;;;;;;12847618;19;20007;-66
2022/12/22 06:08:50;;;;;;;11.70;6.47;;;;;;;;;;12846894;19;20133;-65
2022/12/22 06:13:07;;;;;;;10.88;5.78;;;;;;;;;;12845799;19;20435;-66
2022/12/22 06:17:24;;;;;;;15.50;7.18;;;;;;;;;;12846945;19;20010;-66
2022/12/22 06:21:41;;;;;;;14.95;7.10;;;;;;;;;;12845792;19;20386;-66
2022/12/22 06:26:00;;;;;;;11.50;7.40;;;;;;;;;;12846410;19;20337;-65
2022/12/22 06:30:18;;;;;;;15.30;8.25;;;;;;;;;;12844725;19;20441;-66
2022/12/22 06:34:35;;;;;;;17.80;9.75;;;;;;;;;;12846422;19;20023;-66
2022/12/22 06:38:52;;;;;;;10.65;6.63;;;;;;;;;;12845553;19;20010;-65
2022/12/22 06:43:09;;;;;;;13.60;7.38;;;;;;;;;;12844583;19;20464;-66
2022/12/22 06:47:26;;;;;;;15.20;6.93;;;;;;;;;;12844971;19;20465;-66
2022/12/22 06:51:43;;;;;;;15.35;6.55;;;;;;;;;;12843222;19;20369;-66
2022/12/22 06:56:00;;;;;;;16.17;7.22;;;;;;;;;;12843725;19;20429;-66
2022/12/22 07:00:18;;;;;;;15.57;7.83;;;;;;;;;;12842141;19;20429;-66
2022/12/22 07:04:35;;;;;;;12.53;6.27;;;;;;;;;;12843483;19;20334;-65
2022/12/22 07:08:52;;;;;;;12.50;7.07;;;;;;;;;;12843724;19;20582;-66
2022/12/22 07:13:19;;;;;;;14.77;7.35;;;;;;;;;;12841480;19;20295;-68
2022/12/22 07:17:36;;;;;;;12.90;7.60;;;;;;;;;;12842240;19;20448;-67
2022/12/22 07:21:53;;;;;;;11.23;7.77;;;;;;;;;;12845957;19;20314;-65
2022/12/22 07:26:11;;;;;;;15.60;7.93;;;;;;;;;;12841522;19;20111;-66
2022/12/22 07:30:28;;;;;;;;;;;;;;;;;;12840076;19;20407;-66
2022/12/22 07:34:45;;;;;;;14.63;7.88;;;;;;;;;;12842440;19;19918;-65
2022/12/22 07:39:02;;;;;;;11.70;6.85;;;;;;;;;;12841962;19;20006;-66
2022/12/22 07:43:19;;;;;;;15.80;8.10;;;;;;;;;;12841127;19;20046;-65
2022/12/22 07:47:37;;;;;;;14.27;8.77;;;;;;;;;;12841619;19;20021;-65
2022/12/22 07:51:56;;;;;;;20.30;10.60;;;;;;;;;;12838370;19;20709;-65
2022/12/22 07:56:13;;;;;;;17.10;9.65;;;;;;;;;;12839628;19;20014;-65
2022/12/22 08:00:30;;;;;;;18.17;9.77;;;;;;;;;;12840709;19;20017;-66
2022/12/22 08:04:47;;;;;;;19.17;9.77;;;;;;;;;;12841311;19;20347;-66
2022/12/22 08:09:07;;;;;;;23.13;11.40;;;;;;;;;;12839706;19;20314;-65
2022/12/22 08:13:23;;;;;;;14.57;8.35;;;;;;;;;;12838676;19;20418;-66
2022/12/22 08:17:42;;;;;;;12.75;8.25;;;;;;;;;;12839775;19;20059;-67
2022/12/22 08:22:00;;;;;;;12.80;8.30;;;;;;;;;;12839462;19;20367;-66
2022/12/22 08:26:27;;;;;;;;;;;;;;;;;;12839082;19;20310;-67
2022/12/22 08:30:44;;;;;;;24.20;13.95;;;;;;;;;;12783111;19;19910;-67
2022/12/22 08:35:08;;;;;;;22.63;13.93;;;;;;;;;;12837390;19;20429;-66
2022/12/22 08:39:30;;;;;;;20.83;13.40;;;;;;;;;;12836818;19;20490;-67
2022/12/22 08:43:46;;;;;;;31.95;20.35;;;;;;;;;;12836457;19;20351;-66
2022/12/22 08:48:04;;;;;;;30.88;18.75;;;;;;;;;;12837625;19;20326;-68
2022/12/22 08:52:21;;;;;;;21.63;13.55;;;;;;;;;;12837663;19;20450;-68
2022/12/22 08:56:38;;;;;;;27.08;14.30;;;;;;;;;;12838000;19;20020;-67
2022/12/22 09:00:55;;;;;;;25.75;14.38;;;;;;;;;;12837719;19;20441;-66
2022/12/22 09:05:13;;;;;;;60.15;24.52;;;;;;;;;;12835761;19;20021;-66
2022/12/22 09:09:32;;;;;;;26.92;15.02;;;;;;;;;;12837531;19;20433;-66
2022/12/22 09:13:55;;;;;;;22.80;12.75;;;;;;;;;;12837141;19;20010;-66
2022/12/22 09:18:12;;;;;;;22.60;12.68;;;;;;;;;;12838030;19;20271;-67
2022/12/22 09:22:29;;;;;;;26.27;14.60;;;;;;;;;;12835234;19;20426;-66
2022/12/22 09:26:46;;;;;;;33.63;17.05;;;;;;;;;;12841512;19;20434;-66
2022/12/22 09:31:03;;;;;;;33.80;18.50;;;;;;;;;;12848715;19;20330;-67
2022/12/22 09:35:21;;;;;;;35.05;17.80;;;;;;;;;;12847827;19;20333;-66
2022/12/22 09:39:38;;;;;;;22.70;12.00;;;;;;;;;;12847150;19;20322;-67
2022/12/22 09:43:55;;;;;;;22.42;12.27;;;;;;;;;;12849221;19;20722;-66
2022/12/22 09:48:13;;;;;;;25.27;12.77;;;;;;;;;;12847219;19;20319;-66
2022/12/22 09:52:33;;;;;;;22.02;13.25;;;;;;;;;;12848073;19;20698;-66
2022/12/22 09:56:50;;;;;;;17.17;10.93;;;;;;;;;;12846868;19;20534;-67
2022/12/22 10:01:22;;;;;;;18.95;9.65;;;;;;;;;;12845324;19;20031;-65
2022/12/22 10:06:02;;;;;;;24.05;12.73;;;;;;;;;;12844642;19;20006;-66
2022/12/22 10:10:27;;;;;;;38.17;17.67;;;;;;;;;;12845506;19;20014;-66
2022/12/22 10:14:51;;;;;;;36.38;18.10;;;;;;;;;;12847474;19;20552;-65
2022/12/22 10:19:11;;;;;;;26.23;14.63;;;;;;;;;;12848393;19;20448;-66
2022/12/22 10:23:30;;;;;;;20.60;12.25;;;;;;;;;;12844374;19;20433;-66
2022/12/22 10:27:47;;;;;;;24.48;13.77;;;;;;;;;;12845166;19;20397;-66
2022/12/22 10:32:17;;;;;;;21.33;12.30;;;;;;;;;;12843758;19;20371;-66
2022/12/22 10:36:34;;;;;;;24.70;12.75;;;;;;;;;;12843216;19;20335;-66
2022/12/22 10:41:12;;;;;;;23.63;13.68;;;;;;;;;;12846282;19;20006;-66
2022/12/22 10:45:29;;;;;;;24.20;15.15;;;;;;;;;;12843104;19;20010;-66
2022/12/22 10:49:50;;;;;;;22.70;13.13;;;;;;;;;;12788691;19;20021;-66
2022/12/22 10:54:06;;;;;;;22.15;14.18;;;;;;;;;;12842374;19;20033;-67
2022/12/22 10:58:23;;;;;;;24.15;14.82;;;;;;;;;;12845006;19;20020;-66
2022/12/22 11:02:51;;;;;;;30.05;17.75;;;;;;;;;;12790462;19;20504;-67
2022/12/22 11:07:09;;;;;;;31.35;17.95;;;;;;;;;;12842003;19;20025;-67
2022/12/22 11:11:56;;;;;;;26.27;15.77;;;;;;;;;;12842926;19;20298;-66
2022/12/22 11:16:37;;;;;;;38.15;19.00;;;;;;;;;;12840598;19;20011;-67
2022/12/22 11:21:18;;;;;;;33.97;18.15;;;;;;;;;;12842861;19;20366;-66
2022/12/22 11:25:58;;;;;;;26.45;14.27;;;;;;;;;;12841081;19;20023;-66
2022/12/22 11:30:22;;;;;;;25.90;14.23;;;;;;;;;;12840156;19;20516;-66
2022/12/22 11:35:30;;;;;;;27.55;14.52;;;;;;;;;;12829019;19;20342;-66
2022/12/22 11:40:17;;;;;;;44.28;18.15;;;;;;;;;;12836982;19;20342;-67
2022/12/22 11:45:02;;;;;;;38.88;16.83;;;;;;;;;;12841525;19;20050;-67
2022/12/22 11:49:32;;;;;;;34.92;18.55;;;;;;;;;;12836770;19;20318;-67
2022/12/22 11:54:36;;;;;;;43.08;19.88;;;;;;;;;;12839053;19;20472;-66
2022/12/22 11:59:21;;;;;;;48.47;19.55;;;;;;;;;;12841153;19;20422;-67
2022/12/22 12:04:02;;;;;;;33.72;19.52;;;;;;;;;;12837463;19;20422;-67
2022/12/22 12:08:55;;;;;;;22.20;12.48;;;;;;;;;;12839297;19;20055;-67
2022/12/22 12:13:46;;;;;;;24.90;12.57;;;;;;;;;;12835362;19;20433;-68
2022/12/22 12:18:39;;;;;;;22.30;12.85;;;;;;;;;;12837203;19;20031;-67
2022/12/22 12:23:06;;;;;;;23.38;12.20;;;;;;;;;;12835368;19;20294;-67
2022/12/22 12:27:53;;;;;;;26.08;13.07;;;;;;;;;;12838229;19;20410;-67
2022/12/22 12:32:20;;;;;;;23.52;12.23;;;;;;;;;;12837116;19;20510;-68
2022/12/22 12:37:02;;;;;;;27.63;14.32;;;;;;;;;;12836705;19;20461;-67
2022/12/22 12:41:45;;;;;;;40.45;17.92;;;;;;;;;;12836833;19;20030;-67
2022/12/22 12:46:50;;;;;;;27.80;14.68;;;;;;;;;;12836061;19;20010;-68
2022/12/22 12:51:48;;;;;;;19.55;10.48;;;;;;;;;;12836348;19;20476;-67
2022/12/22 12:56:08;;;;;;;16.23;9.18;;;;;;;;;;12837597;19;20322;-67
2022/12/22 13:00:33;;;;;;;20.85;11.75;;;;;;;;;;12835082;19;20430;-68
2022/12/22 13:05:09;;;;;;;24.98;11.00;;;;;;;;;;12836907;19;20477;-67
2022/12/22 13:09:31;;;;;;;28.25;17.77;;;;;;;;;;12837023;19;20319;-68
2022/12/22 13:14:08;;;;;;;23.40;13.77;;;;;;;;;;12744816;19;20425;-67
2022/12/22 13:18:25;;;;;;;28.27;14.45;;;;;;;;;;12835750;19;20453;-67
2022/12/22 13:22:43;;;;;;;36.13;18.13;;;;;;;;;;12836177;19;20477;-68
2022/12/22 13:27:05;;;;;;;34.10;20.20;;;;;;;;;;12836788;19;20453;-67
2022/12/22 13:32:20;;;;;;;24.58;15.38;;;;;;;;;;12832401;19;20014;-68
2022/12/22 13:36:37;;;;;;;22.92;13.38;;;;;;;;;;12833956;19;20490;-67
2022/12/22 13:40:58;;;;;;;21.67;12.13;;;;;;;;;;12833899;19;20035;-68
2022/12/22 13:45:47;;;;;;;32.58;18.15;;;;;;;;;;12834516;19;20006;-68
2022/12/22 13:50:08;;;;;;;37.15;21.83;;;;;;;;;;12833081;19;20365;-68
2022/12/22 13:54:31;;;;;;;25.13;14.52;;;;;;;;;;12834768;19;20010;-68
2022/12/22 13:59:34;;;;;;;31.25;16.20;;;;;;;;;;12833205;19;20329;-67
2022/12/22 14:04:01;;;;;;;23.33;12.65;;;;;;;;;;12832700;19;20422;-66
2022/12/22 14:08:22;;;;;;;31.23;17.85;;;;;;;;;;12834227;19;20429;-67
2022/12/22 14:12:44;;;;;;;35.53;17.52;;;;;;;;;;12837968;19;20477;-68
2022/12/22 14:17:02;;;;;;;30.77;14.48;;;;;;;;;;12846494;19;20038;-67
2022/12/22 14:21:19;;;;;;;;;;;;;;;;;;12843437;19;20006;-67
2022/12/22 14:25:40;;;;;;;35.33;18.90;;;;;;;;;;12845233;19;19915;-67
2022/12/22 14:29:59;;;;;;;69.18;39.72;;;;;;;;;;12844412;19;20308;-67
2022/12/22 14:34:29;;;;;;;153.10;66.78;;;;;;;;;;12841968;19;20477;-67
2022/12/22 14:38:53;;;;;;;81.47;41.20;;;;;;;;;;12844726;19;20549;-67
2022/12/22 14:43:16;;;;;;;75.70;37.63;;;;;;;;;;12844052;19;20440;-68
2022/12/22 14:47:36;;;;;;;114.75;49.92;;;;;;;;;;12844606;19;20019;-67
2022/12/22 14:52:05;;;;;;;113.07;54.42;;;;;;;;;;12843431;19;20014;-67
2022/12/22 14:56:24;;;;;;;84.32;42.20;;;;;;;;;;12842234;19;20038;-68
2022/12/22 15:00:44;;;;;;;80.43;39.80;;;;;;;;;;12841197;19;20305;-69
2022/12/22 15:05:26;;;;;;;126.90;57.97;;;;;;;;;;12844456;19;20007;-67
2022/12/22 15:09:44;;;;;;;179.57;84.70;;;;;;;;;;12841365;19;20307;-67
2022/12/22 15:14:25;;;;;;;164.68;75.80;;;;;;;;;;12841727;19;20306;-67
2022/12/22 15:18:42;;;;;;;64.13;31.02;;;;;;;;;;12841717;19;20555;-67
2022/12/22 15:22:59;;;;;;;55.80;29.58;;;;;;;;;;12841959;19;20021;-67
2022/12/22 15:27:16;;;;;;;50.78;27.02;;;;;;;;;;12840982;19;20043;-68
2022/12/22 15:31:34;;;;;;;50.80;26.13;;;;;;;;;;12844533;19;20007;-67
2022/12/22 15:35:51;;;;;;;52.43;27.13;;;;;;;;;;12842177;19;20318;-67
2022/12/22 15:40:20;;;;;;;89.47;46.80;;;;;;;;;;12840948;19;20441;-67
2022/12/22 15:44:37;;;;;;;108.03;52.25;;;;;;;;;;12842049;19;20131;-68
2022/12/22 15:48:55;;;;;;;75.97;40.22;;;;;;;;;;12841703;19;20011;-68
2022/12/22 15:53:17;;;;;;;119.87;61.00;;;;;;;;;;12838298;19;20330;-67
2022/12/22 15:57:34;;;;;;;68.82;37.50;;;;;;;;;;12838977;19;20363;-67
2022/12/22 16:01:52;;;;;;;91.35;47.70;;;;;;;;;;12838887;19;20322;-69
2022/12/22 16:06:18;;;;;;;96.63;49.15;;;;;;;;;;12839412;19;20473;-67
2022/12/22 16:10:37;;;;;;;60.58;30.83;;;;;;;;;;12839970;19;20003;-67
2022/12/22 16:14:56;;;;;;;72.17;36.07;;;;;;;;;;12837835;19;20024;-67
2022/12/22 16:19:16;;;;;;;72.72;37.60;;;;;;;;;;12837786;19;20344;-69
2022/12/22 16:23:34;;;;;;;64.13;34.22;;;;;;;;;;12839208;19;21424;-67
2022/12/22 16:27:53;;;;;;;62.25;33.67;;;;;;;;;;12837038;19;20436;-67
2022/12/22 16:32:29;;;;;;;89.20;44.08;;;;;;;;;;12836553;19;20313;-68
2022/12/22 16:36:46;;;;;;;91.97;48.40;;;;;;;;;;12838165;19;20734;-67
2022/12/22 16:41:05;;;;;;;107.90;56.20;;;;;;;;;;12838859;19;20430;-67
2022/12/22 16:45:27;;;;;;;98.07;50.85;;;;;;;;;;12836834;19;20433;-68
2022/12/22 16:49:48;;;;;;;53.70;28.45;;;;;;;;;;12838432;19;20445;-68
2022/12/22 16:54:05;;;;;;;57.95;30.92;;;;;;;;;;12835076;19;20441;-68
2022/12/22 16:58:22;;;;;;;55.03;30.42;;;;;;;;;;12835969;19;20034;-66
2022/12/22 17:02:39;;;;;;;102.63;50.67;;;;;;;;;;12837335;19;20364;-67
2022/12/22 17:06:59;;;;;;;70.97;36.03;;;;;;;;;;12834980;19;20434;-67
2022/12/22 17:11:23;;;;;;;69.85;36.55;;;;;;;;;;12835549;19;20301;-67
2022/12/22 17:15:40;;;;;;;72.38;40.90;;;;;;;;;;12836624;19;20010;-67
2022/12/22 17:19:57;;;;;;;68.93;39.87;;;;;;;;;;12835877;19;20318;-67
2022/12/22 17:24:17;;;;;;;37.22;22.08;;;;;;;;;;12835781;19;20446;-67
2022/12/22 17:28:44;;;;;;;52.55;30.33;;;;;;;;;;12834440;19;20006;-68
2022/12/22 17:33:01;;;;;;;38.67;23.45;;;;;;;;;;12835931;19;20602;-67
2022/12/22 17:37:21;;;;;;;45.63;25.13;;;;;;;;;;12833620;19;20042;-68
2022/12/22 17:41:38;;;;;;;44.42;22.35;;;;;;;;;;12834976;19;20745;-68
2022/12/22 17:45:55;;;;;;;85.82;44.20;;;;;;;;;;12833205;19;20322;-67
2022/12/22 17:50:16;;;;;;;99.78;46.10;;;;;;;;;;12846734;19;20429;-68
2022/12/22 17:54:33;;;;;;;40.92;22.92;;;;;;;;;;12847068;19;20003;-67
2022/12/22 17:58:51;;;;;;;29.02;14.05;;;;;;;;;;12850183;19;20433;-67
2022/12/22 18:03:13;;;;;;;31.50;15.63;;;;;;;;;;12846679;19;20342;-67
2022/12/22 18:07:30;;;;;;;35.85;16.52;;;;;;;;;;12845527;19;20433;-67
2022/12/22 18:11:59;;;;;;;29.90;15.13;;;;;;;;;;12844844;19;20469;-67
2022/12/22 18:16:19;;;;;;;24.95;13.05;;;;;;;;;;12846070;19;20506;-69
2022/12/22 18:20:36;;;;;;;24.13;12.18;;;;;;;;;;12845955;19;20348;-68
2022/12/22 18:24:54;;;;;;;29.30;14.48;;;;;;;;;;12846022;19;20306;-67
2022/12/22 18:29:16;;;;;;;22.15;12.75;;;;;;;;;;12843490;19;20446;-67
2022/12/22 18:33:33;;;;;;;24.63;12.68;;;;;;;;;;12844483;19;20015;-67
2022/12/22 18:37:53;;;;;;;41.00;20.27;;;;;;;;;;12845671;19;20011;-67
2022/12/22 18:42:20;;;;;;;57.05;23.38;;;;;;;;;;12844654;19;20028;-66
2022/12/22 18:46:37;;;;;;;46.28;23.70;;;;;;;;;;12843009;19;20322;-66
2022/12/22 18:50:54;;;;;;;31.75;16.55;;;;;;;;;;12844359;19;20317;-66
2022/12/22 18:55:21;;;;;;;27.00;14.03;;;;;;;;;;12840942;19;20025;-66
2022/12/22 18:59:38;;;;;;;24.65;11.23;;;;;;;;;;12842324;19;20421;-66
2022/12/22 19:03:57;;;;;;;27.67;14.40;;;;;;;;;;12843929;19;20044;-66
2022/12/22 19:08:20;;;;;;;25.77;14.23;;;;;;;;;;12840580;19;20430;-68
2022/12/22 19:12:37;;;;;;;22.15;11.70;;;;;;;;;;12842574;19;20429;-67
2022/12/22 19:16:54;;;;;;;24.88;13.00;;;;;;;;;;12843257;19;20014;-69
2022/12/22 19:21:17;;;;;;;23.07;13.50;;;;;;;;;;12841202;19;20298;-67
2022/12/22 19:25:34;;;;;;;31.27;16.30;;;;;;;;;;12843272;19;20725;-68
2022/12/22 19:29:55;;;;;;;25.67;12.63;;;;;;;;;;12843884;19;20445;-66
2022/12/22 19:34:19;;;;;;;;;;;;;;;;;;12839471;19;20316;-69
2022/12/22 19:38:37;;;;;;;25.23;11.80;;;;;;;;;;12840098;19;20209;-67
2022/12/22 19:42:56;;;;;;;26.65;13.57;;;;;;;;;;12842092;19;20429;-66
2022/12/22 19:47:19;;;;;;;28.38;15.15;;;;;;;;;;12841319;19;20426;-68
2022/12/22 19:51:36;;;;;;;37.33;19.70;;;;;;;;;;12839577;19;20497;-67
2022/12/22 19:55:55;;;;;;;41.33;20.30;;;;;;;;;;12841273;19;20475;-67
2022/12/22 20:00:17;;;;;;;45.85;25.55;;;;;;;;;;12840217;19;20319;-67
2022/12/22 20:04:34;;;;;;;64.20;29.85;;;;;;;;;;12838842;19;20410;-67
2022/12/22 20:08:51;;;;;;;68.50;32.67;;;;;;;;;;12839737;19;20447;-67
2022/12/22 20:13:20;;;;;;;66.75;31.13;;;;;;;;;;12836101;19;20437;-67
2022/12/22 20:17:37;;;;;;;53.72;26.15;;;;;;;;;;12837561;19;20018;-69
2022/12/22 20:21:54;;;;;;;82.37;38.23;;;;;;;;;;12839525;19;20425;-67
2022/12/22 20:26:18;;;;;;;63.28;29.55;;;;;;;;;;12836911;19;20465;-67
2022/12/22 20:30:35;;;;;;;60.65;28.90;;;;;;;;;;12836867;19;20011;-67
2022/12/22 20:34:52;;;;;;;53.28;27.48;;;;;;;;;;12838624;19;20011;-67
2022/12/22 20:39:15;;;;;;;47.08;23.83;;;;;;;;;;12840807;19;20433;-67
2022/12/22 20:43:34;;;;;;;35.78;17.17;;;;;;;;;;12838365;19;20423;-69
2022/12/22 20:47:52;;;;;;;41.65;22.85;;;;;;;;;;12836143;19;20318;-67
2022/12/22 20:52:17;;;;;;;50.92;26.05;;;;;;;;;;12837453;19;20338;-67
2022/12/22 20:56:37;;;;;;;45.33;23.83;;;;;;;;;;12840560;19;20374;-68
2022/12/22 21:00:58;;;;;;;56.15;29.77;;;;;;;;;;12838173;19;20314;-67
2022/12/22 21:05:16;;;;;;;58.65;28.55;;;;;;;;;;12836586;19;20430;-68
2022/12/22 21:09:33;;;;;;;43.13;22.35;;;;;;;;;;12837154;19;20474;-67
2022/12/22 21:13:51;;;;;;;42.10;22.42;;;;;;;;;;12837115;19;20761;-67
2022/12/22 21:18:17;;;;;;;42.30;21.40;;;;;;;;;;12835921;19;20339;-67
2022/12/22 21:22:34;;;;;;;42.75;20.52;;;;;;;;;;12837671;19;20362;-67
2022/12/22 21:26:54;;;;;;;47.55;24.40;;;;;;;;;;12850079;19;20437;-68
2022/12/22 21:31:11;;;;;;;46.83;23.25;;;;;;;;;;12847252;19;20370;-68
2022/12/22 21:35:35;;;;;;;46.85;22.95;;;;;;;;;;12848493;19;20026;-67
2022/12/22 21:39:52;;;;;;;45.90;20.80;;;;;;;;;;12851927;19;20460;-67
2022/12/22 21:44:11;;;;;;;46.72;21.13;;;;;;;;;;12847270;19;20437;-68
2022/12/22 21:48:28;;;;;;;43.33;22.77;;;;;;;;;;12845853;19;20029;-67
2022/12/22 21:52:49;;;;;;;43.38;21.83;;;;;;;;;;12847075;19;20011;-67
2022/12/22 21:57:14;;;;;;;43.22;22.40;;;;;;;;;;12846559;19;20342;-67
2022/12/22 22:01:31;;;;;;;42.05;19.63;;;;;;;;;;12847447;19;20056;-67
2022/12/22 22:05:48;;;;;;;39.63;19.10;;;;;;;;;;12847391;19;20428;-67
2022/12/22 22:10:06;;;;;;;28.45;15.15;;;;;;;;;;12845735;19;20433;-67
2022/12/22 22:14:26;;;;;;;30.45;16.48;;;;;;;;;;12845030;19;20298;-67
2022/12/22 22:18:44;;;;;;;32.92;16.27;;;;;;;;;;12844417;19;20631;-68
2022/12/22 22:23:01;;;;;;;29.77;16.45;;;;;;;;;;12844906;19;20450;-68
2022/12/22 22:27:18;;;;;;;33.75;16.88;;;;;;;;;;12848551;19;20304;-67
2022/12/22 22:31:35;;;;;;;26.75;14.18;;;;;;;;;;12845724;19;20014;-67
2022/12/22 22:35:52;;;;;;;28.10;14.53;;;;;;;;;;12843996;19;20317;-66
2022/12/22 22:40:13;;;;;;;35.00;16.70;;;;;;;;;;12844709;19;20006;-67
2022/12/22 22:44:30;;;;;;;32.00;16.33;;;;;;;;;;12844768;19;20482;-67
2022/12/22 22:48:47;;;;;;;27.52;13.73;;;;;;;;;;12845433;19;20306;-67
2022/12/22 22:53:04;;;;;;;28.33;12.40;;;;;;;;;;12844135;19;20426;-67
2022/12/22 22:57:21;;;;;;;21.48;11.65;;;;;;;;;;12844835;19;22031;-68
2022/12/22 23:01:39;;;;;;;24.92;11.15;;;;;;;;;;12843209;19;20330;-67
2022/12/22 23:06:05;;;;;;;17.20;9.87;;;;;;;;;;12843149;19;20443;-68
2022/12/22 23:10:22;;;;;;;19.88;10.23;;;;;;;;;;12842784;19;20430;-69
2022/12/22 23:14:40;;;;;;;23.67;10.10;;;;;;;;;;12842707;19;20326;-67
2022/12/22 23:18:57;;;;;;;20.85;9.52;;;;;;;;;;12843369;19;20437;-67
2022/12/22 23:23:14;;;;;;;21.70;10.52;;;;;;;;;;12841540;19;20425;-67
2022/12/22 23:27:31;;;;;;;19.75;8.90;;;;;;;;;;12842920;19;20318;-67
2022/12/22 23:31:48;;;;;;;14.73;7.38;;;;;;;;;;12842100;19;20429;-67
2022/12/22 23:36:06;;;;;;;17.10;8.10;;;;;;;;;;12840427;19;20029;-67
2022/12/22 23:40:23;;;;;;;14.25;7.03;;;;;;;;;;12842494;19;20318;-67
2022/12/22 23:45:00;;;;;;;15.75;7.18;;;;;;;;;;12840394;19;20429;-68
2022/12/22 23:49:17;;;;;;;12.70;6.70;;;;;;;;;;12841748;19;20290;-67
2022/12/22 23:53:35;;;;;;;14.35;7.20;;;;;;;;;;12841526;19;20433;-69
2022/12/22 23:57:52;;;;;;;12.82;7.75;;;;;;;;;;12838998;19;20496;-67
